Time;durP1;ratioP1;P1;durP2;ratioP2;P2;SDS_P1;SDS_P2;PMS_P1;PMS_P2;Temp;Humidity;BMP_temperature;BMP_pressure;BME280_temperature;BME280_humidity;BME280_pressure;Samples;Min_cycle;Max_cycle;Signal;HPM_P1;HPM_P2
2024/03/07 00:01:20;;;;;;;75.83;39.53;;;;;;;6.03;99.49;96016.81;5008099;28;20187;-80
2024/03/07 00:03:46;;;;;;;74.83;41.50;;;;;;;6.09;99.12;96011.19;5016470;28;20653;-79
2024/03/07 00:06:11;;;;;;;74.07;39.43;;;;;;;5.97;99.85;96006.91;5012196;28;20217;-79
2024/03/07 00:08:36;;;;;;;74.80;40.77;;;;;;;6.10;97.92;96010.28;5018907;28;20182;-79
2024/03/07 00:11:02;;;;;;;84.00;43.60;;;;;;;6.00;98.83;96011.84;5018946;28;20592;-79
2024/03/07 00:13:27;;;;;;;76.57;41.47;;;;;;;5.92;98.55;96014.19;5018839;28;20215;-80
2024/03/07 00:15:53;;;;;;;71.67;39.20;;;;;;;5.71;99.54;96008.72;5012166;28;20644;-78
2024/03/07 00:18:18;;;;;;;71.53;38.63;;;;;;;5.71;100.00;96015.63;5023798;28;20193;-79
2024/03/07 00:20:44;;;;;;;72.73;40.47;;;;;;;5.90;98.97;96005.66;5018253;28;20243;-80
2024/03/07 00:23:09;;;;;;;69.43;37.87;;;;;;;5.88;98.03;96005.78;5019630;28;20680;-80
2024/03/07 00:25:35;;;;;;;71.20;40.07;;;;;;;5.72;98.39;96010.34;5010514;28;20221;-79
2024/03/07 00:28:03;;;;;;;70.57;39.60;;;;;;;5.75;98.42;96014.50;5004446;28;20205;-79
2024/03/07 00:30:29;;;;;;;67.73;38.87;;;;;;;5.72;97.90;96017.25;5012173;28;20273;-80
2024/03/07 00:32:55;;;;;;;70.90;38.40;;;;;;;5.72;97.62;96015.50;5005919;28;20289;-79
2024/03/07 00:35:21;;;;;;;73.23;40.20;;;;;;;5.85;97.73;96007.75;5010717;28;20259;-78
2024/03/07 00:37:47;;;;;;;70.03;39.57;;;;;;;5.88;96.38;96010.94;5020834;28;20190;-80
2024/03/07 00:40:13;;;;;;;66.07;39.30;;;;;;;5.60;97.23;96006.06;4998168;28;20272;-80
2024/03/07 00:42:38;;;;;;;66.00;37.47;;;;;;;5.66;97.87;96008.22;5012551;28;20206;-80
2024/03/07 00:45:04;;;;;;;70.13;38.47;;;;;;;5.66;97.96;96006.47;5018431;28;20383;-80
2024/03/07 00:47:31;;;;;;;63.53;36.23;;;;;;;5.87;96.52;95999.00;5017799;28;20183;-78
2024/03/07 00:49:57;;;;;;;67.07;37.60;;;;;;;5.78;96.39;96004.78;5014654;28;20183;-79
2024/03/07 00:52:22;;;;;;;63.83;36.67;;;;;;;5.83;96.45;96005.31;5004993;28;20201;-80
2024/03/07 00:54:49;;;;;;;74.87;39.20;;;;;;;5.59;97.43;95999.28;4998270;28;20237;-80
2024/03/07 00:57:14;;;;;;;67.63;37.87;;;;;;;5.60;96.49;96000.91;5016862;28;20202;-78
2024/03/07 00:59:40;;;;;;;62.77;37.80;;;;;;;5.62;95.88;96001.63;5009968;28;20194;-79
2024/03/07 01:02:05;;;;;;;64.93;36.33;;;;;;;5.55;96.77;96001.22;5017110;28;20248;-80
2024/03/07 01:04:31;;;;;;;64.80;37.17;;;;;;;5.48;96.32;95997.44;5014285;28;20293;-79
2024/03/07 01:07:00;;;;;;;71.13;40.43;;;;;;;5.34;97.62;95998.38;5015829;28;20241;-79
2024/03/07 01:09:28;;;;;;;69.83;39.43;;;;;;;5.49;96.25;95995.69;5016771;28;20245;-80
2024/03/07 01:11:54;;;;;;;65.30;36.57;;;;;;;5.46;95.78;95995.88;5019600;28;20274;-79
2024/03/07 01:14:20;;;;;;;67.33;39.27;;;;;;;5.40;96.13;96003.09;5000063;28;20209;-79
2024/03/07 01:16:47;;;;;;;70.40;40.30;;;;;;;5.45;96.09;96004.53;5013267;28;20667;-79
2024/03/07 01:19:12;;;;;;;65.20;39.37;;;;;;;5.04;97.45;95987.59;5017721;28;20191;-78
2024/03/07 01:21:38;;;;;;;64.80;38.20;;;;;;;5.01;96.64;95995.50;5013819;28;20189;-79
2024/03/07 01:24:04;;;;;;;67.47;39.20;;;;;;;5.23;94.81;95984.59;5003170;28;20273;-78
2024/03/07 01:26:29;;;;;;;66.73;38.67;;;;;;;4.96;94.83;95992.41;5003873;28;20289;-79
2024/03/07 01:28:56;;;;;;;70.90;39.50;;;;;;;4.87;94.13;95988.72;4999432;28;20267;-79
2024/03/07 01:31:22;;;;;;;72.80;37.87;;;;;;;5.09;93.73;95978.59;5001804;28;20843;-79
2024/03/07 01:33:48;;;;;;;68.10;37.57;;;;;;;5.14;93.31;95985.22;5006397;28;20187;-79
2024/03/07 01:36:13;;;;;;;65.13;39.53;;;;;;;4.88;95.03;95980.06;5019411;28;20209;-80
2024/03/07 01:38:38;;;;;;;68.03;37.53;;;;;;;5.14;93.34;95978.31;4999541;28;20187;-79
2024/03/07 01:41:04;;;;;;;66.43;39.00;;;;;;;5.14;93.20;95974.91;4995258;28;20199;-79
2024/03/07 01:43:31;;;;;;;72.93;40.43;;;;;;;5.03;94.10;95980.75;5003909;28;20273;-79
2024/03/07 01:45:58;;;;;;;70.23;38.43;;;;;;;4.95;94.54;95971.00;5004198;28;20206;-79
2024/03/07 01:48:31;;;;;;;66.87;37.33;;;;;;;4.95;95.18;95970.19;5001681;28;20692;-78
2024/03/07 01:50:59;;;;;;;70.87;39.10;;;;;;;5.08;93.70;95976.13;5016049;28;20248;-79
2024/03/07 01:53:26;;;;;;;70.20;38.20;;;;;;;4.96;94.49;95966.69;5010214;28;20216;-80
2024/03/07 01:55:53;;;;;;;66.17;37.93;;;;;;;4.86;94.77;95969.06;5009557;28;20309;-80
2024/03/07 01:58:19;;;;;;;68.97;38.97;;;;;;;4.91;94.00;95968.72;5003237;28;20190;-80
2024/03/07 02:00:45;;;;;;;66.17;38.20;;;;;;;4.68;94.39;95967.66;5017598;28;20679;-79
2024/03/07 02:03:10;;;;;;;68.90;38.73;;;;;;;4.90;93.78;95959.38;5016779;28;20186;-79
2024/03/07 02:05:36;;;;;;;61.40;35.97;;;;;;;4.98;92.93;95959.66;5008844;28;20229;-80
2024/03/07 02:08:01;;;;;;;64.80;37.50;;;;;;;4.96;92.36;95956.38;5018406;28;20201;-79
2024/03/07 02:10:27;;;;;;;65.37;37.13;;;;;;;4.86;92.55;95961.34;5021103;28;20198;-79
2024/03/07 02:12:52;;;;;;;62.13;37.23;;;;;;;4.76;92.25;95963.66;5016675;28;20194;-79
2024/03/07 02:15:18;;;;;;;66.77;38.00;;;;;;;4.84;91.70;95958.84;4997036;28;20270;-79
2024/03/07 02:17:44;;;;;;;63.60;37.77;;;;;;;4.79;92.36;95960.09;5014841;28;20600;-79
2024/03/07 02:20:10;;;;;;;65.67;38.43;;;;;;;4.66;92.49;95957.50;5015897;28;20187;-79
2024/03/07 02:22:37;;;;;;;61.53;37.60;;;;;;;4.68;91.70;95958.22;5004015;28;20194;-79
2024/03/07 02:25:02;;;;;;;61.97;37.23;;;;;;;4.55;92.12;95950.47;4999081;28;20245;-79
2024/03/07 02:27:28;;;;;;;64.17;37.67;;;;;;;4.47;91.84;95949.34;5015173;28;20187;-79
2024/03/07 02:29:53;;;;;;;63.33;39.13;;;;;;;4.31;91.77;95953.81;5010337;28;20675;-79
2024/03/07 02:32:19;;;;;;;64.20;38.30;;;;;;;4.35;91.01;95950.16;5015965;28;20272;-79
2024/03/07 02:34:44;;;;;;;59.03;36.77;;;;;;;4.06;90.87;95952.81;5023637;28;20242;-80
2024/03/07 02:37:09;;;;;;;70.93;36.87;;;;;;;4.30;90.39;95945.28;5022534;28;20672;-79
2024/03/07 02:39:36;;;;;;;62.53;38.37;;;;;;;4.34;89.50;95940.78;5016763;28;20189;-77
2024/03/07 02:42:02;;;;;;;63.07;38.50;;;;;;;4.35;89.05;95932.16;5013063;28;20222;-79
2024/03/07 02:44:27;;;;;;;61.40;38.47;;;;;;;4.41;89.15;95935.13;5025689;28;20218;-79
2024/03/07 02:46:54;;;;;;;64.47;38.23;;;;;;;4.46;89.06;95933.09;5022414;28;20575;-79
2024/03/07 02:49:20;;;;;;;63.47;40.27;;;;;;;4.48;89.28;95930.41;5018116;28;20221;-79
2024/03/07 02:51:46;;;;;;;63.80;38.47;;;;;;;4.44;89.30;95931.56;5021318;28;20198;-79
2024/03/07 02:54:11;;;;;;;67.07;38.83;;;;;;;4.41;88.89;95929.97;5020229;28;20193;-78
2024/03/07 02:56:36;;;;;;;62.00;39.27;;;;;;;4.51;89.47;95925.09;5004919;28;20251;-79
2024/03/07 02:59:02;;;;;;;66.77;39.67;;;;;;;4.48;88.95;95927.84;5007096;28;20190;-79
2024/03/07 03:01:27;;;;;;;67.43;39.33;;;;;;;4.44;88.75;95919.50;5018588;28;20227;-79
2024/03/07 03:03:52;;;;;;;66.33;39.60;;;;;;;4.50;88.37;95923.41;5017492;28;20689;-79
2024/03/07 03:06:20;;;;;;;65.60;38.30;;;;;;;4.52;88.71;95916.44;5015985;28;20707;-78
2024/03/07 03:08:46;;;;;;;64.93;38.67;;;;;;;4.52;89.16;95916.44;5009531;28;20201;-79
2024/03/07 03:11:13;;;;;;;62.60;38.80;;;;;;;4.49;89.13;95916.63;5009562;28;20236;-80
2024/03/07 03:13:39;;;;;;;65.93;39.80;;;;;;;4.45;89.28;95916.00;5020624;28;20194;-79
2024/03/07 03:16:06;;;;;;;67.10;39.60;;;;;;;4.41;89.22;95908.59;5010463;28;20202;-79
2024/03/07 03:18:33;;;;;;;58.47;37.23;;;;;;;4.44;89.13;95913.56;5028776;28;20195;-79
2024/03/07 03:20:59;;;;;;;63.03;39.10;;;;;;;4.51;89.01;95900.19;5012237;28;20659;-79
2024/03/07 03:23:25;;;;;;;68.07;39.53;;;;;;;4.44;89.32;95904.09;5011133;28;20192;-79
2024/03/07 03:25:50;;;;;;;67.23;38.47;;;;;;;4.39;88.96;95906.13;5017166;28;20253;-80
2024/03/07 03:28:16;;;;;;;56.90;37.07;;;;;;;4.33;87.94;95906.53;5022443;28;20191;-79
2024/03/07 03:30:42;;;;;;;60.47;37.40;;;;;;;4.40;87.25;95901.81;5012031;28;20197;-78
2024/03/07 03:33:08;;;;;;;62.70;37.70;;;;;;;4.38;87.40;95898.50;5005115;28;20183;-80
2024/03/07 03:35:34;;;;;;;60.77;37.40;;;;;;;4.35;87.10;95898.72;5013660;28;20229;-79
2024/03/07 03:37:59;;;;;;;62.57;38.50;;;;;;;4.33;87.52;95895.41;5018596;28;20209;-79
2024/03/07 03:40:25;;;;;;;67.63;40.23;;;;;;;4.28;87.67;95900.06;5020757;28;20663;-80
2024/03/07 03:42:50;;;;;;;64.70;38.60;;;;;;;4.18;87.34;95895.50;5012009;28;20206;-78
2024/03/07 03:45:16;;;;;;;66.40;38.23;;;;;;;4.20;87.11;95890.25;5004245;28;20223;-80
2024/03/07 03:47:42;;;;;;;67.07;38.93;;;;;;;3.96;87.92;95892.66;5018973;28;20202;-78
2024/03/07 03:50:09;;;;;;;65.63;38.90;;;;;;;4.03;88.25;95893.94;5015492;28;20195;-80
2024/03/07 03:52:35;;;;;;;67.97;42.17;;;;;;;3.96;88.29;95888.34;5020082;28;20278;-79
2024/03/07 03:55:01;;;;;;;67.67;39.40;;;;;;;3.97;88.97;95894.31;5013724;28;20715;-79
2024/03/07 03:57:27;;;;;;;68.63;41.17;;;;;;;3.79;89.51;95887.78;5017980;28;20187;-79
2024/03/07 03:59:53;;;;;;;68.23;39.67;;;;;;;3.80;88.64;95890.28;5019853;28;20260;-79
2024/03/07 04:02:18;;;;;;;71.37;40.20;;;;;;;3.75;88.88;95882.03;5008134;28;20277;-79
2024/03/07 04:04:45;;;;;;;67.87;41.10;;;;;;;3.57;89.88;95890.91;5007691;28;20218;-78
2024/03/07 04:07:12;;;;;;;73.33;40.23;;;;;;;3.59;89.52;95891.63;5017661;28;20187;-78
2024/03/07 04:09:37;;;;;;;69.47;42.87;;;;;;;3.38;91.01;95896.38;5007518;28;20837;-79
2024/03/07 04:12:02;;;;;;;70.67;41.90;;;;;;;3.40;90.61;95890.22;5020612;28;20276;-78
2024/03/07 04:14:32;;;;;;;71.63;42.23;;;;;;;3.44;89.90;95885.69;5017760;28;20201;-79
2024/03/07 04:16:57;;;;;;;80.73;43.77;;;;;;;3.29;90.28;95882.38;5019696;28;20265;-78
2024/03/07 04:19:23;;;;;;;68.27;40.23;;;;;;;3.13;91.04;95894.50;5019160;28;20281;-79
2024/03/07 04:21:48;;;;;;;78.30;43.57;;;;;;;3.13;90.91;95892.75;5018858;28;20182;-79
2024/03/07 04:24:14;;;;;;;76.97;42.73;;;;;;;3.21;90.40;95886.31;5016338;28;20191;-78
2024/03/07 04:26:41;;;;;;;69.93;40.93;;;;;;;3.22;89.66;95886.22;5010803;28;20249;-78
2024/03/07 04:29:08;;;;;;;71.23;40.97;;;;;;;3.04;89.45;95887.34;5019361;28;20204;-78
2024/03/07 04:31:33;;;;;;;65.90;38.47;;;;;;;3.15;89.86;95884.94;5015011;28;20184;-80
2024/03/07 04:33:59;;;;;;;60.73;38.13;;;;;;;3.11;89.71;95884.31;5006511;28;20274;-79
2024/03/07 04:36:24;;;;;;;65.60;38.77;;;;;;;2.94;90.22;95884.53;5010250;28;20231;-79
2024/03/07 04:38:51;;;;;;;65.47;37.77;;;;;;;3.06;89.95;95876.06;5017550;28;20183;-79
2024/03/07 04:41:16;;;;;;;69.83;40.03;;;;;;;3.00;89.41;95876.44;5011134;28;20206;-78
2024/03/07 04:43:42;;;;;;;65.10;39.07;;;;;;;2.91;89.67;95881.31;5017368;28;20195;-79
2024/03/07 04:46:07;;;;;;;67.23;39.53;;;;;;;2.73;90.69;95878.09;5018633;28;20210;-79
2024/03/07 04:48:33;;;;;;;64.50;40.53;;;;;;;2.76;89.80;95878.75;5010165;28;20190;-79
2024/03/07 04:50:58;;;;;;;69.67;39.83;;;;;;;2.67;89.98;95883.63;5001149;28;20194;-79
2024/03/07 04:53:24;;;;;;;63.60;38.70;;;;;;;2.72;90.01;95876.47;5022530;28;20679;-79
2024/03/07 04:55:49;;;;;;;68.30;38.90;;;;;;;2.77;89.65;95879.59;5015809;28;20699;-78
2024/03/07 04:58:15;;;;;;;64.37;37.80;;;;;;;2.72;90.00;95882.41;5005694;28;20182;-80
2024/03/07 05:00:40;;;;;;;64.63;38.50;;;;;;;2.44;89.66;95872.97;5008919;28;20193;-78
2024/03/07 05:03:06;;;;;;;65.73;38.93;;;;;;;2.41;90.36;95877.47;5018548;28;20607;-79
2024/03/07 05:05:31;;;;;;;64.50;37.73;;;;;;;2.25;91.22;95882.66;5014639;28;20218;-79
2024/03/07 05:07:56;;;;;;;63.33;38.30;;;;;;;2.13;91.30;95880.81;5014998;28;20210;-79
2024/03/07 05:10:22;;;;;;;61.50;38.27;;;;;;;2.34;90.47;95871.88;5005157;28;20244;-79
2024/03/07 05:12:47;;;;;;;62.87;38.00;;;;;;;2.37;90.00;95881.09;5005779;28;20191;-79
2024/03/07 05:15:12;;;;;;;64.10;37.77;;;;;;;2.17;90.59;95885.66;5014633;28;20458;-79
2024/03/07 05:17:39;;;;;;;69.67;39.03;;;;;;;2.24;89.38;95881.00;5008479;28;20218;-79
2024/03/07 05:20:15;;;;;;;61.73;36.00;;;;;;;2.23;89.98;95881.94;5011843;28;20561;-78
2024/03/07 05:22:44;;;;;;;70.17;39.07;;;;;;;2.18;89.36;95879.63;5004042;28;20182;-78
2024/03/07 05:25:09;;;;;;;66.23;37.57;;;;;;;2.21;89.49;95878.63;5016433;28;20747;-79
2024/03/07 05:27:36;;;;;;;68.10;38.80;;;;;;;2.17;89.36;95877.16;5007367;28;20269;-80
2024/03/07 05:30:02;;;;;;;63.07;36.27;;;;;;;2.16;88.98;95872.94;5010763;28;20669;-79
2024/03/07 05:32:28;;;;;;;68.30;38.30;;;;;;;2.19;88.81;95863.31;5009404;28;20182;-78
2024/03/07 05:34:53;;;;;;;59.83;36.10;;;;;;;2.16;89.15;95875.50;5008610;28;20203;-80
2024/03/07 05:37:21;;;;;;;66.33;37.47;;;;;;;2.16;88.33;95868.63;5020170;28;20190;-79
2024/03/07 05:39:50;;;;;;;67.93;38.20;;;;;;;2.09;88.76;95875.03;5009046;28;20182;-78
2024/03/07 05:42:15;;;;;;;64.10;37.50;;;;;;;2.10;89.03;95874.09;5011440;28;20197;-79
2024/03/07 05:44:41;;;;;;;74.23;38.87;;;;;;;2.11;88.14;95877.50;5006058;28;20206;-78
2024/03/07 05:47:07;;;;;;;66.60;38.13;;;;;;;2.05;89.03;95875.31;5016751;28;20649;-79
2024/03/07 05:49:34;;;;;;;64.40;38.67;;;;;;;1.98;89.41;95875.63;5007637;28;20841;-79
2024/03/07 05:51:59;;;;;;;63.20;37.93;;;;;;;1.73;90.51;95877.13;5003645;28;20193;-79
2024/03/07 05:54:24;;;;;;;64.10;38.30;;;;;;;2.07;89.31;95865.78;5007294;28;20183;-78
2024/03/07 05:56:50;;;;;;;67.23;38.30;;;;;;;1.65;90.38;95873.25;5007905;28;20194;-78
2024/03/07 05:59:16;;;;;;;60.23;36.30;;;;;;;1.90;89.05;95867.56;5014326;28;20194;-79
2024/03/07 06:01:42;;;;;;;58.37;34.83;;;;;;;1.67;89.72;95865.47;5016820;28;20191;-79
2024/03/07 06:04:10;;;;;;;61.97;35.87;;;;;;;1.94;88.63;95870.75;5013441;28;20562;-79
2024/03/07 06:06:36;;;;;;;61.57;35.73;;;;;;;2.07;87.20;95873.47;5008288;28;20211;-78
2024/03/07 06:09:07;;;;;;;59.23;34.20;;;;;;;2.05;87.56;95867.63;4999981;28;20186;-79
2024/03/07 06:11:33;;;;;;;57.83;35.03;;;;;;;2.02;87.38;95875.47;5008651;28;20208;-78
2024/03/07 06:13:59;;;;;;;57.30;34.50;;;;;;;2.11;87.05;95875.75;5004337;28;20195;-79
2024/03/07 06:16:24;;;;;;;62.13;34.70;;;;;;;2.13;87.00;95873.13;5005889;28;20554;-78
2024/03/07 06:18:50;;;;;;;56.60;33.63;;;;;;;2.12;86.62;95868.88;5004514;28;20297;-78
2024/03/07 06:21:16;;;;;;;61.00;35.50;;;;;;;2.08;86.55;95867.44;5015542;28;20210;-79
2024/03/07 06:23:43;;;;;;;55.67;32.57;;;;;;;1.87;86.64;95867.75;5016865;28;20629;-78
2024/03/07 06:26:12;;;;;;;54.97;33.77;;;;;;;1.85;86.27;95867.00;5000482;28;20211;-78
2024/03/07 06:28:39;;;;;;;51.57;31.80;;;;;;;2.19;85.58;95863.31;5009156;28;20182;-78
2024/03/07 06:31:07;;;;;;;55.73;31.63;;;;;;;2.06;85.71;95859.00;5016040;28;20186;-79
2024/03/07 06:33:33;;;;;;;50.73;31.23;;;;;;;2.17;85.63;95864.34;5017476;28;20275;-78
2024/03/07 06:35:58;;;;;;;54.20;31.37;;;;;;;2.42;84.43;95859.44;5017305;28;20798;-79
2024/03/07 06:38:24;;;;;;;54.30;32.07;;;;;;;2.26;84.49;95864.63;5015945;28;20249;-79
2024/03/07 06:40:49;;;;;;;49.23;30.23;;;;;;;2.29;84.50;95855.91;5010829;28;20229;-80
2024/03/07 06:43:14;;;;;;;48.73;29.90;;;;;;;2.32;83.79;95860.06;5017237;28;20200;-81
2024/03/07 06:45:41;;;;;;;51.23;31.00;;;;;;;2.44;84.01;95860.16;5014511;28;20246;-80
2024/03/07 06:48:07;;;;;;;49.47;30.03;;;;;;;2.01;84.69;95861.00;5006799;28;20218;-79
2024/03/07 06:50:36;;;;;;;44.70;29.83;;;;;;;2.22;83.80;95859.78;5009217;28;20668;-80
2024/03/07 06:53:03;;;;;;;47.20;28.60;;;;;;;2.40;83.40;95860.44;5005690;28;20199;-80
2024/03/07 06:55:28;;;;;;;48.90;28.83;;;;;;;2.60;83.01;95865.22;5001387;28;20720;-80
2024/03/07 06:57:54;;;;;;;47.90;30.63;;;;;;;2.67;82.79;95869.06;5013761;28;20254;-80
2024/03/07 07:00:20;;;;;;;47.27;30.33;;;;;;;2.51;82.93;95858.06;5005599;28;20270;-80
2024/03/07 07:02:46;;;;;;;48.27;29.93;;;;;;;2.70;82.86;95866.31;5000822;28;20868;-81
2024/03/07 07:05:12;;;;;;;47.90;29.70;;;;;;;2.74;82.94;95872.91;5013691;28;20222;-79
2024/03/07 07:07:45;;;;;;;46.60;28.73;;;;;;;2.78;81.93;95876.09;4994165;28;20241;-81
2024/03/07 07:10:15;;;;;;;48.17;29.07;;;;;;;2.78;81.89;95874.34;5014562;28;20193;-81
2024/03/07 07:12:43;;;;;;;46.43;29.23;;;;;;;2.82;81.56;95875.00;5013934;28;20195;-80
2024/03/07 07:15:10;;;;;;;46.17;28.73;;;;;;;2.68;81.47;95875.00;5012044;28;20199;-80
2024/03/07 07:17:35;;;;;;;45.97;30.23;;;;;;;2.94;82.40;95871.69;5014363;28;20269;-81
2024/03/07 07:20:01;;;;;;;46.17;29.07;;;;;;;2.86;81.51;95873.91;5005654;28;20192;-80
2024/03/07 07:22:27;;;;;;;46.87;30.27;;;;;;;2.89;81.31;95873.72;5010764;28;20664;-80
2024/03/07 07:24:52;;;;;;;46.90;29.60;;;;;;;3.03;81.57;95871.13;5016458;28;20785;-79
2024/03/07 07:27:18;;;;;;;48.63;29.53;;;;;;;2.68;82.08;95875.00;5011440;28;20195;-80
2024/03/07 07:29:44;;;;;;;46.00;28.87;;;;;;;3.02;81.75;95869.50;5021697;28;20592;-83
2024/03/07 07:32:12;;;;;;;44.73;28.13;;;;;;;2.70;82.61;95862.91;5012943;28;20197;-81
2024/03/07 07:34:37;;;;;;;44.97;28.30;;;;;;;3.14;81.81;95873.03;5017524;28;20203;-80
2024/03/07 07:37:03;;;;;;;45.00;28.53;;;;;;;2.99;80.88;95867.09;5001556;28;20585;-80
2024/03/07 07:39:29;;;;;;;46.17;28.93;;;;;;;3.05;82.15;95866.72;5023868;28;20195;-80
2024/03/07 07:41:54;;;;;;;42.53;27.40;;;;;;;3.28;81.50;95862.75;5014548;28;20192;-80
2024/03/07 07:44:19;;;;;;;41.93;27.73;;;;;;;3.25;81.96;95862.09;5017613;28;20659;-81
2024/03/07 07:46:45;;;;;;;42.80;27.23;;;;;;;3.12;81.38;95860.31;5019208;28;20203;-84
2024/03/07 07:49:10;;;;;;;41.77;26.93;;;;;;;3.25;80.75;95859.53;5013574;28;20275;-84
2024/03/07 07:51:35;;;;;;;40.17;27.43;;;;;;;3.11;81.29;95850.97;5027858;28;20182;-80
2024/03/07 07:54:02;;;;;;;42.03;26.57;;;;;;;3.11;81.15;95848.41;5020690;28;20186;-81
2024/03/07 07:56:28;;;;;;;43.27;25.87;;;;;;;2.88;80.04;95851.53;5027864;28;20195;-81
2024/03/07 07:58:54;;;;;;;42.67;26.30;;;;;;;3.28;80.32;95846.53;5027223;28;20189;-81
2024/03/07 08:01:19;;;;;;;39.53;26.20;;;;;;;3.05;80.79;95843.63;5029516;28;20199;-81
2024/03/07 08:03:45;;;;;;;45.53;28.13;;;;;;;3.28;80.07;95839.66;5009836;28;20194;-81
2024/03/07 08:06:10;;;;;;;38.07;25.93;;;;;;;3.22;80.97;95844.34;5021120;28;20318;-82
2024/03/07 08:08:35;;;;;;;41.40;27.30;;;;;;;3.53;80.05;95841.47;5042202;28;20186;-83
2024/03/07 08:11:01;;;;;;;43.13;26.90;;;;;;;3.45;79.80;95848.03;5028296;28;20241;-81
2024/03/07 08:13:26;;;;;;;41.80;25.63;;;;;;;3.28;80.27;95844.78;5028812;28;20183;-83
2024/03/07 08:15:53;;;;;;;40.63;24.90;;;;;;;3.72;79.48;95832.63;5017085;28;20233;-82
2024/03/07 08:18:20;;;;;;;39.40;26.23;;;;;;;3.95;78.41;95835.31;5025430;28;20182;-81
2024/03/07 08:20:45;;;;;;;40.33;25.57;;;;;;;3.79;78.79;95833.84;5016272;28;20186;-79
2024/03/07 08:23:12;;;;;;;41.93;25.67;;;;;;;3.60;78.58;95837.59;5006383;28;20566;-80
2024/03/07 08:25:40;;;;;;;38.77;24.87;;;;;;;3.59;78.72;95833.38;5003716;28;20211;-81
2024/03/07 08:28:06;;;;;;;37.40;25.07;;;;;;;3.97;79.42;95830.91;5028096;28;20188;-81
2024/03/07 08:30:31;;;;;;;40.03;25.80;;;;;;;3.86;77.96;95832.53;5014129;28;20187;-79
2024/03/07 08:32:57;;;;;;;37.97;24.97;;;;;;;3.80;78.26;95831.19;5012621;28;20684;-80
2024/03/07 08:35:23;;;;;;;36.23;24.00;;;;;;;4.22;77.59;95827.53;5011184;28;20206;-80
2024/03/07 08:37:52;;;;;;;38.67;24.53;;;;;;;4.51;76.46;95822.22;5021697;28;20188;-81
2024/03/07 08:40:21;;;;;;;37.90;26.23;;;;;;;4.77;75.16;95823.84;5006371;28;20222;-81
2024/03/07 08:42:47;;;;;;;42.83;25.50;;;;;;;5.07;74.66;95820.03;5028972;28;20222;-80
2024/03/07 08:45:17;;;;;;;39.77;25.60;;;;;;;5.14;74.92;95823.03;5019712;28;20711;-81
2024/03/07 08:47:42;;;;;;;39.40;25.30;;;;;;;5.27;75.30;95824.59;5012540;28;20239;-80
2024/03/07 08:50:08;;;;;;;40.17;25.70;;;;;;;5.45;74.41;95819.09;5008144;28;20198;-81
2024/03/07 08:52:37;;;;;;;36.40;26.10;;;;;;;4.85;74.90;95815.56;5019988;28;20218;-79
2024/03/07 08:55:03;;;;;;;38.33;25.43;;;;;;;5.16;73.42;95816.00;5009336;28;20216;-80
2024/03/07 08:57:29;;;;;;;36.97;25.30;;;;;;;5.04;73.11;95821.09;5012504;28;20190;-81
2024/03/07 08:59:54;;;;;;;37.43;24.93;;;;;;;4.99;73.82;95818.00;5010738;28;20180;-81
2024/03/07 09:02:20;;;;;;;39.23;25.77;;;;;;;4.86;74.24;95821.53;5023883;28;20196;-80
2024/03/07 09:04:46;;;;;;;39.63;24.83;;;;;;;4.61;73.78;95809.53;5018695;28;20692;-80
2024/03/07 09:07:11;;;;;;;37.50;26.23;;;;;;;4.78;74.92;95816.94;5011080;28;20763;-80
2024/03/07 09:09:37;;;;;;;39.50;26.73;;;;;;;4.78;75.52;95809.22;5021501;28;20190;-80
2024/03/07 09:12:02;;;;;;;39.43;26.43;;;;;;;4.60;76.32;95816.44;5021214;28;20199;-80
2024/03/07 09:14:28;;;;;;;41.93;26.30;;;;;;;5.13;75.87;95811.91;5020093;28;20202;-80
2024/03/07 09:16:54;;;;;;;52.80;28.07;;;;;;;5.05;75.00;95814.19;5019464;28;20660;-80
2024/03/07 09:19:24;;;;;;;38.80;27.13;;;;;;;4.50;75.67;95815.41;5020971;28;20566;-82
2024/03/07 09:21:51;;;;;;;48.63;25.87;;;;;;;4.68;76.75;95806.44;5004158;28;20563;-80
2024/03/07 09:24:16;;;;;;;41.37;27.23;;;;;;;4.86;76.54;95812.09;5020897;28;20183;-81
2024/03/07 09:26:42;;;;;;;40.60;27.00;;;;;;;4.84;76.36;95808.78;5011425;28;20210;-81
2024/03/07 09:29:07;;;;;;;44.43;29.17;;;;;;;4.73;77.18;95806.94;5022219;28;20189;-80
2024/03/07 09:31:33;;;;;;;48.57;33.03;;;;;;;4.54;77.97;95804.00;5019066;28;20225;-81
2024/03/07 09:33:58;;;;;;;43.03;28.50;;;;;;;4.46;75.35;95806.25;5018820;28;20211;-80
2024/03/07 09:36:27;;;;;;;43.07;27.30;;;;;;;4.55;75.38;95814.16;5019863;28;20624;-81
2024/03/07 09:38:53;;;;;;;42.90;28.50;;;;;;;4.33;76.39;95806.28;5011954;28;20199;-80
2024/03/07 09:41:19;;;;;;;40.30;27.43;;;;;;;4.40;75.97;95810.06;5013168;28;20197;-78
2024/03/07 09:43:47;;;;;;;42.37;28.07;;;;;;;4.69;76.00;95800.38;5017662;28;20187;-79
2024/03/07 09:46:12;;;;;;;44.07;28.87;;;;;;;4.64;75.87;95797.28;5020971;28;20214;-79
2024/03/07 09:48:38;;;;;;;47.13;29.37;;;;;;;4.61;76.78;95800.06;5008888;28;20184;-81
2024/03/07 09:51:04;;;;;;;45.13;30.00;;;;;;;4.62;74.51;95801.72;5008304;28;20569;-80
2024/03/07 09:53:30;;;;;;;45.40;29.83;;;;;;;4.39;76.41;95802.44;5019329;28;20905;-80
2024/03/07 09:55:57;;;;;;;45.57;29.17;;;;;;;4.55;75.89;95797.91;5019259;28;20207;-81
2024/03/07 09:58:22;;;;;;;48.17;29.80;;;;;;;5.08;76.48;95806.25;5011606;28;20274;-80
2024/03/07 10:00:50;;;;;;;46.97;30.00;;;;;;;5.07;75.66;95807.19;5023259;28;20217;-80
2024/03/07 10:03:17;;;;;;;49.07;31.67;;;;;;;5.05;76.04;95807.28;5004288;28;20564;-81
2024/03/07 10:05:43;;;;;;;47.33;30.57;;;;;;;4.71;76.80;95801.09;5007266;28;20220;-80
2024/03/07 10:08:10;;;;;;;47.23;30.80;;;;;;;4.94;76.24;95802.03;5008574;28;20212;-79
2024/03/07 10:10:36;;;;;;;46.17;30.73;;;;;;;5.00;75.63;95806.78;5014228;28;20652;-80
2024/03/07 10:13:02;;;;;;;49.23;32.37;;;;;;;5.05;75.59;95806.47;5008612;28;20190;-80
2024/03/07 10:15:32;;;;;;;52.10;33.60;;;;;;;4.58;76.54;95797.69;5019066;28;20237;-80
2024/03/07 10:17:57;;;;;;;45.97;30.57;;;;;;;5.08;76.96;95804.50;5020851;28;20240;-79
2024/03/07 10:20:24;;;;;;;48.83;33.60;;;;;;;5.58;76.35;95800.06;5008666;28;20193;-80
2024/03/07 10:22:50;;;;;;;43.97;30.20;;;;;;;5.83;74.75;95796.53;5017299;28;20245;-80
2024/03/07 10:25:21;;;;;;;50.97;30.80;;;;;;;5.93;74.14;95800.13;5009024;28;20217;-80
2024/03/07 10:27:49;;;;;;;49.53;30.13;;;;;;;6.03;73.12;95799.44;5020510;28;20372;-79
2024/03/07 10:30:20;;;;;;;46.77;31.17;;;;;;;5.68;74.70;95806.19;5003818;28;20195;-80
2024/03/07 10:32:55;;;;;;;47.97;29.87;;;;;;;6.11;74.03;95791.94;5012133;28;20369;-80
2024/03/07 10:35:27;;;;;;;48.33;30.87;;;;;;;6.16;74.29;95795.00;5011249;28;20205;-80
2024/03/07 10:38:06;;;;;;;42.77;30.07;;;;;;;6.13;73.25;95788.31;5003184;28;20187;-83
2024/03/07 10:40:32;;;;;;;44.77;29.77;;;;;;;6.24;73.36;95797.81;5023926;28;20202;-81
2024/03/07 10:42:58;;;;;;;47.87;29.43;;;;;;;6.12;72.69;95793.59;5022737;28;20225;-79
2024/03/07 10:45:23;;;;;;;46.03;30.43;;;;;;;6.31;72.95;95791.28;5006590;28;20696;-79
2024/03/07 10:47:56;;;;;;;41.97;28.90;;;;;;;6.15;73.28;95793.34;5020981;28;20194;-80
2024/03/07 10:50:40;;;;;;;46.77;30.60;;;;;;;6.55;72.96;95787.78;5008015;28;20539;-80
2024/03/07 10:53:33;;;;;;;46.77;31.33;;;;;;;6.55;73.02;95788.59;5025223;28;20205;-81
2024/03/07 10:56:06;;;;;;;46.73;28.70;;;;;;;6.30;71.76;95786.22;5026639;28;20207;-81
2024/03/07 10:58:42;;;;;;;43.40;28.93;;;;;;;6.38;71.69;95786.47;5026541;28;20256;-80
2024/03/07 11:01:11;;;;;;;47.13;30.33;;;;;;;6.60;71.29;95783.06;5027059;28;20182;-80
2024/03/07 11:03:36;;;;;;;45.13;29.40;;;;;;;6.78;71.39;95786.81;5012983;28;20186;-80
2024/03/07 11:06:06;;;;;;;45.40;29.30;;;;;;;6.58;71.80;95784.97;5014076;28;20214;-81
2024/03/07 11:08:34;;;;;;;42.40;29.77;;;;;;;6.52;71.92;95789.63;5033380;28;20240;-81
2024/03/07 11:10:59;;;;;;;45.70;27.77;;;;;;;6.70;69.78;95789.16;5017381;28;20214;-80
2024/03/07 11:13:26;;;;;;;44.73;28.37;;;;;;;6.76;69.89;95779.19;5025622;28;20183;-80
2024/03/07 11:15:52;;;;;;;40.67;28.07;;;;;;;6.76;69.22;95775.78;5015422;28;20963;-80
2024/03/07 11:18:17;;;;;;;42.17;27.10;;;;;;;6.50;68.03;95778.63;5016960;28;20202;-81
2024/03/07 11:20:46;;;;;;;36.07;24.40;;;;;;;6.39;68.31;95764.91;5007019;28;20190;-80